createdAt,value
2023-05-05T00:01:43.763Z,7.10
2023-05-05T00:05:47.727Z,5.47
2023-05-05T00:09:50.520Z,5.55
2023-05-05T00:13:53.361Z,4.93
2023-05-05T00:17:56.260Z,6.18
2023-05-05T00:21:59.073Z,7.70
2023-05-05T00:26:01.814Z,5.40
2023-05-05T00:30:05.948Z,5.53
2023-05-05T00:34:10.286Z,5.32
2023-05-05T00:38:13.037Z,5.35
2023-05-05T00:42:16.034Z,5.07
2023-05-05T00:46:25.343Z,4.80
2023-05-05T00:50:30.242Z,4.95
2023-05-05T00:54:34.869Z,5.00
2023-05-05T00:58:37.812Z,7.03
2023-05-05T01:02:42.359Z,6.15
2023-05-05T01:07:03.126Z,7.10
2023-05-05T01:11:23.616Z,5.40
2023-05-05T01:15:37.752Z,4.05
2023-05-05T01:20:05.877Z,5.00
2023-05-05T01:24:21.175Z,5.13
2023-05-05T01:28:30.744Z,5.18
2023-05-05T01:32:40.303Z,4.97
2023-05-05T01:36:46.699Z,8.13
2023-05-05T01:40:55.733Z,5.05
2023-05-05T01:45:00.250Z,5.68
2023-05-05T01:49:04.143Z,5.30
2023-05-05T01:53:09.797Z,5.32
2023-05-05T01:57:14.952Z,5.60
2023-05-05T02:01:22.532Z,5.13
2023-05-05T02:05:27.595Z,6.47
2023-05-05T02:09:32.485Z,4.95
2023-05-05T02:13:36.658Z,4.35
2023-05-05T02:17:45.414Z,6.43
2023-05-05T02:21:48.286Z,6.32
2023-05-05T02:26:03.156Z,5.53
2023-05-05T02:30:11.365Z,7.22
2023-05-05T02:34:20.458Z,6.32
2023-05-05T02:38:28.034Z,7.10
2023-05-05T02:42:41.677Z,5.72
2023-05-05T02:46:48.795Z,5.50
2023-05-05T02:50:51.824Z,5.68
2023-05-05T02:55:07.306Z,6.63
2023-05-05T02:59:32.666Z,6.20
2023-05-05T03:03:52.262Z,5.43
2023-05-05T03:08:04.061Z,6.20
2023-05-05T03:12:13.762Z,7.22
2023-05-05T03:16:28.355Z,6.43
2023-05-05T03:20:32.882Z,7.03
2023-05-05T03:24:41.644Z,9.57
2023-05-05T03:28:46.550Z,7.80
2023-05-05T03:32:55.302Z,6.88
2023-05-05T03:36:58.450Z,6.22
2023-05-05T03:41:03.629Z,5.95
2023-05-05T03:45:08.178Z,6.65
2023-05-05T03:49:11.314Z,5.20
2023-05-05T03:53:15.950Z,6.60
2023-05-05T03:57:19.440Z,6.68
2023-05-05T04:01:23.391Z,6.10
2023-05-05T04:05:27.048Z,6.13
2023-05-05T04:09:30.529Z,5.57
2023-05-05T04:13:33.683Z,6.85
2023-05-05T04:17:36.829Z,6.13
2023-05-05T04:21:39.784Z,5.72
2023-05-05T04:25:42.853Z,6.07
2023-05-05T04:29:47.711Z,7.07
2023-05-05T04:33:50.608Z,6.95
2023-05-05T04:37:54.887Z,6.80
2023-05-05T04:41:58.080Z,6.57
2023-05-05T04:46:01.034Z,9.05
2023-05-05T04:54:11.394Z,6.47
2023-05-05T04:58:14.276Z,8.77
2023-05-05T05:02:17.176Z,8.75
2023-05-05T05:06:19.985Z,7.38
2023-05-05T05:10:22.769Z,9.65
2023-05-05T05:14:28.197Z,9.60
2023-05-05T05:18:32.308Z,11.03
2023-05-05T05:26:49.531Z,9.68
2023-05-05T05:30:52.900Z,10.38
2023-05-05T05:34:56.012Z,11.98
2023-05-05T05:38:58.974Z,12.23
2023-05-05T05:43:03.200Z,12.43
2023-05-05T05:47:07.238Z,14.65
2023-05-05T05:51:10.280Z,10.68
2023-05-05T05:55:13.602Z,10.75
2023-05-05T05:59:17.136Z,9.60
2023-05-05T06:03:20.514Z,9.48
2023-05-05T06:07:23.478Z,11.43
2023-05-05T06:11:26.525Z,10.18
2023-05-05T06:15:29.711Z,11.00
2023-05-05T06:19:33.314Z,8.13
2023-05-05T06:23:36.471Z,9.93
2023-05-05T06:27:42.831Z,11.48
2023-05-05T06:31:45.724Z,8.02
2023-05-05T06:35:49.625Z,9.50
2023-05-05T06:39:52.464Z,13.20
2023-05-05T06:43:55.372Z,12.10
2023-05-05T06:47:58.207Z,11.38
2023-05-05T06:52:01.763Z,12.73
2023-05-05T06:56:04.991Z,14.82
2023-05-05T07:00:11.338Z,17.55
2023-05-05T07:04:14.573Z,16.38
2023-05-05T07:08:17.425Z,12.10
2023-05-05T07:12:20.920Z,13.27
2023-05-05T07:16:25.497Z,10.65
2023-05-05T07:20:28.517Z,9.30
2023-05-05T07:24:31.465Z,9.23
2023-05-05T07:28:35.292Z,13.73
2023-05-05T07:32:38.389Z,11.40
2023-05-05T07:36:42.151Z,9.68
2023-05-05T07:40:44.941Z,10.10
2023-05-05T07:44:47.846Z,10.18
2023-05-05T07:48:50.789Z,9.68
2023-05-05T07:53:02.394Z,10.07
2023-05-05T07:57:13.369Z,9.95
2023-05-05T08:01:16.380Z,11.50
2023-05-05T08:05:19.365Z,11.68
2023-05-05T08:09:22.141Z,12.32
2023-05-05T08:13:25.250Z,11.20
2023-05-05T08:17:28.170Z,10.15
2023-05-05T08:21:31.886Z,10.10
2023-05-05T08:25:34.782Z,9.70
2023-05-05T08:29:37.766Z,8.95
2023-05-05T08:33:40.624Z,8.38
2023-05-05T08:37:43.515Z,8.93
2023-05-05T08:41:46.372Z,9.20
2023-05-05T08:45:49.946Z,7.80
2023-05-05T08:49:55.812Z,9.75
2023-05-05T08:54:03.196Z,7.40
2023-05-05T08:58:06.461Z,5.90
2023-05-05T09:02:11.982Z,6.57
2023-05-05T09:06:14.822Z,7.43
2023-05-05T09:10:18.472Z,6.90
2023-05-05T09:14:21.325Z,6.22
2023-05-05T09:18:24.997Z,5.15
2023-05-05T09:22:47.905Z,5.70
2023-05-05T09:26:51.084Z,6.22
2023-05-05T09:30:54.302Z,6.60
2023-05-05T09:35:01.278Z,6.78
2023-05-05T09:39:06.338Z,5.80
2023-05-05T09:43:12.278Z,4.47
2023-05-05T09:47:28.534Z,5.00
2023-05-05T09:51:32.201Z,4.50
2023-05-05T09:55:36.076Z,4.88
2023-05-05T09:59:39.205Z,5.75
2023-05-05T10:03:54.235Z,4.30
2023-05-05T10:08:15.758Z,5.28
2023-05-05T10:12:18.668Z,3.83
2023-05-05T10:16:22.090Z,5.43
2023-05-05T10:20:26.914Z,4.20
2023-05-05T10:24:40.082Z,4.22
2023-05-05T10:28:56.911Z,6.85
2023-05-05T10:33:39.836Z,4.40
2023-05-05T10:37:44.744Z,4.70
2023-05-05T10:41:50.367Z,3.97
2023-05-05T10:45:55.191Z,5.10
2023-05-05T10:50:28.466Z,4.88
2023-05-05T10:54:46.008Z,4.13
2023-05-05T10:58:59.098Z,5.28
2023-05-05T11:03:18.290Z,4.55
2023-05-05T11:07:24.899Z,4.25
2023-05-05T11:15:57.230Z,4.13
2023-05-05T11:20:00.204Z,4.75
2023-05-05T11:24:32.015Z,4.60
2023-05-05T11:28:54.536Z,4.25
2023-05-05T11:33:39.760Z,4.30
2023-05-05T11:37:42.704Z,4.28
2023-05-05T11:42:05.356Z,4.45
2023-05-05T11:46:15.400Z,3.88
2023-05-05T11:50:21.356Z,4.15
2023-05-05T11:54:26.245Z,3.70
2023-05-05T11:58:29.011Z,4.13
2023-05-05T12:02:31.994Z,4.20
2023-05-05T12:06:34.987Z,4.00
2023-05-05T12:10:37.913Z,4.22
2023-05-05T12:14:53.557Z,4.22
2023-05-05T12:19:11.907Z,4.88
2023-05-05T12:23:14.838Z,6.00
2023-05-05T12:27:17.690Z,5.22
2023-05-05T12:31:21.043Z,4.65
2023-05-05T12:35:23.892Z,4.32
2023-05-05T12:39:39.585Z,3.17
2023-05-05T12:43:42.598Z,4.13
2023-05-05T12:47:45.534Z,3.55
2023-05-05T12:51:56.927Z,4.20
2023-05-05T12:55:59.884Z,5.25
2023-05-05T13:00:17.154Z,4.05
2023-05-05T13:04:23.198Z,3.70
2023-05-05T13:08:43.195Z,3.65
2023-05-05T13:12:46.534Z,2.88
2023-05-05T13:16:50.302Z,3.53
2023-05-05T13:20:53.058Z,3.80
2023-05-05T13:24:56.051Z,5.07
2023-05-05T13:28:59.050Z,3.50
2023-05-05T13:33:06.197Z,3.08
2023-05-05T13:37:09.213Z,3.65
2023-05-05T13:41:12.119Z,4.32
2023-05-05T13:45:15.102Z,3.80
2023-05-05T13:49:18.341Z,3.35
2023-05-05T13:53:21.267Z,3.47
2023-05-05T13:57:26.526Z,3.10
2023-05-05T14:01:32.769Z,4.35
2023-05-05T14:05:36.420Z,3.30
2023-05-05T14:09:39.519Z,3.00
2023-05-05T14:13:44.816Z,3.15
2023-05-05T14:17:47.774Z,2.88
2023-05-05T14:21:57.374Z,3.35
2023-05-05T14:26:02.385Z,3.95
2023-05-05T14:30:06.065Z,3.33
2023-05-05T14:34:08.955Z,5.10
2023-05-05T14:38:12.247Z,3.17
2023-05-05T14:42:15.963Z,4.93
2023-05-05T14:46:19.118Z,4.70
2023-05-05T14:50:22.522Z,2.95
2023-05-05T14:54:29.181Z,5.18
2023-05-05T14:58:32.411Z,3.22
2023-05-05T15:02:35.346Z,4.72
2023-05-05T15:06:38.329Z,2.92
2023-05-05T15:10:41.169Z,4.03
2023-05-05T15:14:44.874Z,4.65
2023-05-05T15:18:48.030Z,6.00
2023-05-05T15:22:51.472Z,6.40
2023-05-05T15:26:54.590Z,6.28
2023-05-05T15:30:58.556Z,4.30
2023-05-05T15:35:05.175Z,4.03
2023-05-05T15:39:21.870Z,3.17
2023-05-05T15:43:24.648Z,4.55
2023-05-05T15:47:27.721Z,3.97
2023-05-05T15:51:32.373Z,3.47
2023-05-05T15:55:36.046Z,3.10
2023-05-05T15:59:53.447Z,4.15
2023-05-05T16:04:02.346Z,5.57
2023-05-05T16:08:09.745Z,4.57
2023-05-05T16:12:12.997Z,5.13
2023-05-05T16:16:16.159Z,3.45
2023-05-05T16:20:19.218Z,4.05
2023-05-05T16:24:23.099Z,3.25
2023-05-05T16:28:26.187Z,3.05
2023-05-05T16:32:29.462Z,3.38
2023-05-05T16:36:32.799Z,3.30
2023-05-05T16:40:39.905Z,2.85
2023-05-05T16:44:42.745Z,3.75
2023-05-05T16:48:46.145Z,5.10
2023-05-05T16:52:52.391Z,6.38
2023-05-05T16:56:55.397Z,3.42
2023-05-05T17:00:58.331Z,4.40
2023-05-05T17:05:03.146Z,4.45
2023-05-05T17:09:06.423Z,2.55
2023-05-05T17:13:10.907Z,2.22
2023-05-05T17:17:13.967Z,3.25
2023-05-05T17:21:17.558Z,3.33
2023-05-05T17:25:20.979Z,1.77
2023-05-05T17:29:23.957Z,2.30
2023-05-05T17:33:26.827Z,2.90
2023-05-05T17:37:29.877Z,3.03
2023-05-05T17:41:32.739Z,2.15
2023-05-05T17:45:35.849Z,1.98
2023-05-05T17:49:39.172Z,2.10
2023-05-05T17:53:42.008Z,1.77
2023-05-05T17:57:44.809Z,21.10
2023-05-05T18:01:47.856Z,7.25
2023-05-05T18:05:50.907Z,3.00
2023-05-05T18:09:53.843Z,34.20
2023-05-05T18:13:56.737Z,2.65
2023-05-05T18:18:00.205Z,1.95
2023-05-05T18:22:03.285Z,1.98
2023-05-05T18:26:06.578Z,4.43
2023-05-05T18:30:10.083Z,2.65
2023-05-05T18:34:33.138Z,3.10
2023-05-05T18:38:35.994Z,2.83
2023-05-05T18:42:39.920Z,4.50
2023-05-05T18:46:46.968Z,3.03
2023-05-05T18:50:51.577Z,1.77
2023-05-05T18:54:54.482Z,1.85
2023-05-05T18:58:57.275Z,1.35
2023-05-05T19:03:00.246Z,2.30
2023-05-05T19:07:03.610Z,2.17
2023-05-05T19:11:07.241Z,2.00
2023-05-05T19:15:11.668Z,2.63
2023-05-05T19:19:14.801Z,2.08
2023-05-05T19:23:17.662Z,2.67
2023-05-05T19:27:20.539Z,2.33
2023-05-05T19:31:27.733Z,1.65
2023-05-05T19:35:31.828Z,2.25
2023-05-05T19:39:34.688Z,3.72
2023-05-05T19:43:38.691Z,2.47
2023-05-05T19:47:41.682Z,2.20
2023-05-05T19:51:47.639Z,1.85
2023-05-05T19:55:50.830Z,1.48
2023-05-05T19:59:53.706Z,2.03
2023-05-05T20:03:57.412Z,2.00
2023-05-05T20:08:01.231Z,1.63
2023-05-05T20:12:04.668Z,1.58
2023-05-05T20:16:07.863Z,1.55
2023-05-05T20:20:11.803Z,5.70
2023-05-05T20:24:14.902Z,1.83
2023-05-05T20:28:17.947Z,1.42
2023-05-05T20:32:20.934Z,1.25
2023-05-05T20:36:26.435Z,1.58
2023-05-05T20:40:30.489Z,1.95
2023-05-05T20:44:33.314Z,2.80
2023-05-05T20:48:38.225Z,1.63
2023-05-05T20:52:43.105Z,1.88
2023-05-05T20:56:46.031Z,1.25
2023-05-05T21:00:49.404Z,1.27
2023-05-05T21:04:52.231Z,1.08
2023-05-05T21:08:55.111Z,1.52
2023-05-05T21:12:57.983Z,2.08
2023-05-05T21:17:01.158Z,1.20
2023-05-05T21:21:04.339Z,1.70
2023-05-05T21:25:18.544Z,1.83
2023-05-05T21:29:21.387Z,1.70
2023-05-05T21:33:24.303Z,1.42
2023-05-05T21:37:27.256Z,2.35
2023-05-05T21:41:30.394Z,1.02
2023-05-05T21:45:33.425Z,0.55
2023-05-05T21:49:36.343Z,1.88
2023-05-05T21:53:40.252Z,0.93
2023-05-05T21:57:43.640Z,0.85
2023-05-05T22:01:49.203Z,1.58
2023-05-05T22:05:52.727Z,1.05
2023-05-05T22:09:55.921Z,1.70
2023-05-05T22:13:58.903Z,3.90
2023-05-05T22:18:01.897Z,1.55
2023-05-05T22:22:04.836Z,1.55
2023-05-05T22:26:08.811Z,1.42
2023-05-05T22:30:12.468Z,1.70
2023-05-05T22:34:15.361Z,1.52
2023-05-05T22:38:18.151Z,1.13
2023-05-05T22:42:21.196Z,1.85
2023-05-05T22:46:24.009Z,1.50
2023-05-05T22:50:27.009Z,1.15
2023-05-05T22:54:29.886Z,5.25
2023-05-05T22:58:32.828Z,1.30
2023-05-05T23:02:36.851Z,1.35
2023-05-05T23:06:42.847Z,1.17
2023-05-05T23:10:45.729Z,1.13
2023-05-05T23:14:50.089Z,1.02
2023-05-05T23:18:52.991Z,1.95
2023-05-05T23:22:56.019Z,1.98
2023-05-05T23:27:02.201Z,2.50
2023-05-05T23:31:05.202Z,1.35
2023-05-05T23:35:08.590Z,1.25
2023-05-05T23:39:11.756Z,1.20
2023-05-05T23:43:15.212Z,2.10
2023-05-05T23:47:18.083Z,1.00
2023-05-05T23:51:21.386Z,1.40
2023-05-05T23:55:24.571Z,2.53
2023-05-05T23:59:27.326Z,1.02
